Pleasant Hill, Louisiana
Current Conditions -  °F | °C
As of 12:15 PM on Thursday 27 Nov 2014 (Local Time) from KIER Reporting Station
Clear Clear  
Wind Chill: 56°   Ceiling: Unl
Heat Index: 56°   Visibility: 10mi
Dew Point: 29°   Wind: 9mph
Humidity: 35%   Direction: 50°NE
Pressure: 30.49"   Gusts: NA
Location:  31.82°N, 93.51°W
Report Text: KIER 271815Z AUTO 05008KT 10SM CLR 14/M01 A3049 RMK AO2 T01361015
Loading
Personal Weather Stations






























Interactive Weather Map New forecast layout! Learn more

10-Day Weather Forecast

Advertisements
Track Severe Weather on mobile